createdAt,value
2023-02-15T00:01:08.608Z,33.42
2023-02-15T00:06:12.763Z,40.13
2023-02-15T00:11:17.503Z,33.63
2023-02-15T00:16:20.289Z,36.92
2023-02-15T00:21:24.521Z,34.75
2023-02-15T00:26:27.535Z,35.83
2023-02-15T00:31:32.646Z,40.80
2023-02-15T00:36:36.890Z,30.88
2023-02-15T00:41:39.891Z,38.90
2023-02-15T00:46:42.774Z,39.20
2023-02-15T00:51:47.103Z,36.10
2023-02-15T00:56:49.894Z,38.95
2023-02-15T01:20:42.511Z,38.60
2023-02-15T01:25:46.904Z,35.50
2023-02-15T01:30:49.721Z,30.15
2023-02-15T01:35:58.940Z,35.10
2023-02-15T01:41:17.381Z,25.63
2023-02-15T01:46:22.204Z,31.88
2023-02-15T01:51:28.586Z,32.00
2023-02-15T01:56:38.244Z,29.25
2023-02-15T02:01:41.296Z,32.00
2023-02-15T02:06:44.149Z,28.15
2023-02-15T02:11:50.625Z,25.73
2023-02-15T02:17:00.566Z,25.63
2023-02-15T02:22:32.969Z,22.45
2023-02-15T02:27:41.466Z,23.48
2023-02-15T02:33:11.017Z,19.50
2023-02-15T02:38:21.253Z,25.17
2023-02-15T02:43:30.344Z,23.20
2023-02-15T02:48:35.519Z,19.23
2023-02-15T02:53:38.548Z,23.67
2023-02-15T02:58:46.817Z,24.70
2023-02-15T03:03:54.833Z,22.48
2023-02-15T03:09:03.203Z,25.73
2023-02-15T03:14:06.015Z,22.60
2023-02-15T03:19:11.949Z,28.40
2023-02-15T03:24:19.660Z,26.88
2023-02-15T03:29:26.867Z,25.40
2023-02-15T03:34:31.781Z,24.67
2023-02-15T03:39:38.044Z,23.45
2023-02-15T03:44:49.988Z,26.73
2023-02-15T03:49:57.473Z,28.05
2023-02-15T03:55:00.801Z,21.83
2023-02-15T04:00:26.159Z,27.27
2023-02-15T04:05:30.303Z,24.17
2023-02-15T04:10:50.635Z,28.20
2023-02-15T04:16:06.239Z,24.05
2023-02-15T04:21:29.582Z,26.80
2023-02-15T04:26:32.339Z,21.77
2023-02-15T04:31:35.167Z,24.98
2023-02-15T04:36:39.419Z,27.77
2023-02-15T04:41:42.494Z,25.95
2023-02-15T04:46:45.285Z,20.92
2023-02-15T04:51:49.389Z,26.27
2023-02-15T04:56:52.165Z,24.73
2023-02-15T05:01:55.116Z,28.92
2023-02-15T05:06:59.365Z,24.27
2023-02-15T05:12:02.183Z,21.80
2023-02-15T05:17:06.243Z,26.15
2023-02-15T05:22:10.664Z,21.83
2023-02-15T05:27:32.178Z,25.02
2023-02-15T05:32:35.133Z,21.88
2023-02-15T05:37:39.380Z,22.90
2023-02-15T05:42:42.152Z,22.35
2023-02-15T05:47:45.082Z,21.35
2023-02-15T05:52:51.292Z,18.33
2023-02-15T05:57:55.318Z,18.70
2023-02-15T06:02:58.089Z,19.38
2023-02-15T06:08:02.776Z,20.20
2023-02-15T06:13:06.541Z,19.70
2023-02-15T06:18:09.295Z,21.73
2023-02-15T06:23:13.833Z,24.05
2023-02-15T06:28:16.535Z,26.13
2023-02-15T06:33:19.540Z,21.92
2023-02-15T06:38:23.652Z,32.38
2023-02-15T06:43:26.666Z,33.08
2023-02-15T06:48:29.489Z,24.85
2023-02-15T06:53:34.425Z,24.55
2023-02-15T06:58:37.595Z,24.33
2023-02-15T07:03:43.937Z,22.60
2023-02-15T07:08:48.092Z,25.60
2023-02-15T07:13:50.887Z,21.88
2023-02-15T07:18:54.950Z,42.78
2023-02-15T07:24:00.487Z,29.15
2023-02-15T07:29:03.226Z,28.73
2023-02-15T07:34:07.614Z,30.40
2023-02-15T07:39:13.986Z,25.13
2023-02-15T07:44:17.814Z,23.65
2023-02-15T07:49:20.737Z,24.02
2023-02-15T07:54:24.941Z,25.45
2023-02-15T07:59:28.367Z,30.50
2023-02-15T08:04:32.134Z,31.42
2023-02-15T08:09:36.644Z,27.33
2023-02-15T08:14:39.428Z,27.33
2023-02-15T08:19:42.163Z,26.50
2023-02-15T08:24:48.613Z,30.67
2023-02-15T08:29:52.370Z,26.55
2023-02-15T08:34:55.159Z,23.20
2023-02-15T08:39:59.282Z,21.75
2023-02-15T08:45:02.629Z,25.27
2023-02-15T08:50:07.438Z,33.28
2023-02-15T08:55:11.565Z,22.95
2023-02-15T09:00:15.882Z,30.88
2023-02-15T09:05:18.628Z,27.67
2023-02-15T09:10:22.852Z,25.10
2023-02-15T09:15:25.600Z,25.50
2023-02-15T09:20:29.013Z,30.45
2023-02-15T09:25:33.189Z,27.33
2023-02-15T09:30:36.936Z,27.17
2023-02-15T09:35:40.016Z,29.10
2023-02-15T09:40:57.743Z,25.05
2023-02-15T09:46:20.973Z,25.80
2023-02-15T09:52:01.349Z,25.70
2023-02-15T09:57:13.672Z,26.67
2023-02-15T10:02:29.713Z,26.13
2023-02-15T10:07:56.454Z,27.23
2023-02-15T10:18:39.968Z,25.27
2023-02-15T10:24:03.267Z,30.90
2023-02-15T10:29:17.152Z,25.67
2023-02-15T10:34:21.748Z,26.13
2023-02-15T10:39:31.004Z,26.25
2023-02-15T10:44:49.441Z,24.52
2023-02-15T10:50:08.550Z,26.23
2023-02-15T10:55:20.483Z,25.23
2023-02-15T11:00:32.345Z,27.88
2023-02-15T11:05:45.758Z,34.00
2023-02-15T11:10:54.223Z,24.27
2023-02-15T11:16:04.034Z,21.75
2023-02-15T11:21:12.830Z,22.60
2023-02-15T11:26:21.592Z,21.50
2023-02-15T11:31:30.044Z,21.35
2023-02-15T11:36:37.052Z,22.30
2023-02-15T11:41:43.578Z,21.55
2023-02-15T11:46:47.781Z,19.90
2023-02-15T11:51:51.801Z,19.83
2023-02-15T11:56:55.757Z,19.65
2023-02-15T12:01:59.932Z,24.35
2023-02-15T12:07:12.629Z,21.73
2023-02-15T12:12:27.506Z,24.40
2023-02-15T12:17:34.673Z,17.42
2023-02-15T12:22:39.420Z,19.45
2023-02-15T12:27:45.080Z,18.45
2023-02-15T12:32:53.958Z,17.58
2023-02-15T12:37:58.544Z,16.58
2023-02-15T12:43:01.807Z,17.08
2023-02-15T12:48:17.852Z,16.42
2023-02-15T12:53:24.416Z,18.67
2023-02-15T12:58:29.236Z,18.63
2023-02-15T13:03:33.983Z,20.90
2023-02-15T13:08:50.444Z,21.70
2023-02-15T13:13:58.565Z,20.50
2023-02-15T13:19:08.010Z,19.95
2023-02-15T13:24:20.402Z,20.38
2023-02-15T13:29:26.753Z,20.20
2023-02-15T13:34:35.583Z,18.92
2023-02-15T13:39:45.309Z,18.20
2023-02-15T13:45:03.380Z,19.83
2023-02-15T13:50:31.228Z,15.10
2023-02-15T13:55:42.160Z,15.93
2023-02-15T14:00:53.829Z,17.90
2023-02-15T14:06:10.838Z,17.52
2023-02-15T14:16:34.461Z,24.70
2023-02-15T14:21:47.116Z,19.27
2023-02-15T14:26:55.265Z,20.08
2023-02-15T14:32:03.953Z,19.75
2023-02-15T14:37:08.756Z,19.83
2023-02-15T14:42:18.532Z,19.23
2023-02-15T14:47:27.996Z,22.42
2023-02-15T14:52:32.292Z,22.45
2023-02-15T14:57:36.710Z,20.75
2023-02-15T15:02:49.565Z,34.13
2023-02-15T15:07:56.604Z,20.80
2023-02-15T15:12:59.946Z,32.15
2023-02-15T15:18:04.308Z,25.75
2023-02-15T15:23:40.991Z,28.60
2023-02-15T15:29:06.159Z,23.77
2023-02-15T15:34:35.397Z,22.10
2023-02-15T15:40:28.753Z,22.80
2023-02-15T15:45:56.247Z,23.80
2023-02-15T15:51:02.012Z,22.90
2023-02-15T15:56:08.654Z,24.30
2023-02-15T16:01:14.671Z,22.20
2023-02-15T16:06:29.839Z,22.88
2023-02-15T16:11:33.780Z,23.77
2023-02-15T16:16:38.055Z,24.50
2023-02-15T16:21:41.016Z,25.85
2023-02-15T16:27:05.456Z,25.85
2023-02-15T16:32:20.310Z,25.98
2023-02-15T16:37:26.950Z,23.60
2023-02-15T16:42:30.069Z,25.25
2023-02-15T16:47:38.373Z,24.00
2023-02-15T16:52:45.828Z,23.52
2023-02-15T16:57:48.846Z,24.73
2023-02-15T17:03:01.341Z,26.55
2023-02-15T17:08:15.539Z,26.73
2023-02-15T17:13:19.829Z,34.78
2023-02-15T17:18:25.403Z,33.90
2023-02-15T17:23:32.234Z,31.55
2023-02-15T17:28:35.123Z,28.00
2023-02-15T17:33:40.405Z,29.17
2023-02-15T17:39:03.375Z,29.95
2023-02-15T17:44:09.453Z,32.92
2023-02-15T17:49:20.329Z,29.88
2023-02-15T17:54:41.051Z,35.15
2023-02-15T18:00:02.653Z,32.83
2023-02-15T18:05:35.950Z,37.47
2023-02-15T18:10:56.332Z,32.20
2023-02-15T18:15:59.264Z,33.70
2023-02-15T18:21:03.686Z,42.97
2023-02-15T18:26:07.469Z,44.30
2023-02-15T18:31:11.440Z,41.25
2023-02-15T18:36:22.129Z,36.33
2023-02-15T18:41:25.384Z,35.25
2023-02-15T18:46:28.737Z,37.15
2023-02-15T18:51:35.545Z,34.35
2023-02-15T18:56:38.417Z,33.10
2023-02-15T19:01:42.836Z,35.73
2023-02-15T19:06:48.787Z,33.65
2023-02-15T19:11:54.960Z,34.08
2023-02-15T19:16:59.178Z,31.57
2023-02-15T19:22:03.766Z,38.25
2023-02-15T19:27:08.531Z,40.75
2023-02-15T19:32:12.728Z,34.10
2023-02-15T19:37:27.583Z,34.22
2023-02-15T19:42:32.542Z,33.85
2023-02-15T19:47:35.762Z,29.58
2023-02-15T19:52:40.463Z,33.55
2023-02-15T19:57:43.266Z,30.17
2023-02-15T20:02:46.651Z,31.33
2023-02-15T20:07:52.465Z,33.40
2023-02-15T20:12:55.752Z,32.75
2023-02-15T20:17:59.674Z,31.70
2023-02-15T20:23:04.573Z,31.08
2023-02-15T20:28:15.949Z,30.83
2023-02-15T20:33:20.341Z,31.77
2023-02-15T20:38:28.182Z,33.67
2023-02-15T20:43:31.576Z,30.02
2023-02-15T20:48:34.600Z,32.20
2023-02-15T20:53:38.813Z,31.63
2023-02-15T20:58:41.837Z,31.27
2023-02-15T21:03:44.658Z,33.22
2023-02-15T21:08:48.830Z,32.17
2023-02-15T21:13:52.168Z,34.30
2023-02-15T21:18:55.280Z,34.45
2023-02-15T21:23:59.522Z,35.22
2023-02-15T21:29:03.944Z,33.67
2023-02-15T21:34:06.831Z,38.90
2023-02-15T21:39:16.986Z,34.85
2023-02-15T21:44:39.818Z,33.70
2023-02-15T21:49:42.685Z,35.35
2023-02-15T21:54:46.949Z,34.08
2023-02-15T21:59:49.785Z,35.53
2023-02-15T22:04:52.747Z,31.52
2023-02-15T22:09:56.924Z,39.15
2023-02-15T22:14:59.746Z,47.67
2023-02-15T22:20:03.629Z,35.35
2023-02-15T22:25:08.200Z,32.38
2023-02-15T22:30:20.801Z,30.55
2023-02-15T22:35:26.978Z,31.80
2023-02-15T22:40:33.798Z,37.80
2023-02-15T22:45:36.684Z,35.08
2023-02-15T22:50:39.518Z,33.90
2023-02-15T22:55:44.345Z,34.08
2023-02-15T23:00:47.335Z,42.78
2023-02-15T23:05:50.728Z,39.47
2023-02-15T23:10:58.090Z,37.55
2023-02-15T23:16:03.366Z,35.97
2023-02-15T23:21:16.021Z,33.35
2023-02-15T23:26:22.390Z,35.65
2023-02-15T23:31:28.056Z,35.63
2023-02-15T23:36:33.569Z,37.40
2023-02-15T23:41:37.717Z,34.50
2023-02-15T23:46:42.516Z,38.10
2023-02-15T23:51:46.810Z,33.60
2023-02-15T23:56:53.698Z,37.15
